Latest Weather Observations for Richmond

IDQ60801

Issued at 4:05 am EST Thursday 2 October 2014 (issued every 30 minutes, with the page automatically refreshed every 10 minutes)

About weather observations | Map of weather stations | Latest weather observations for QLD | Other Formats
Station Details ID: 030161 Name: RICHMOND AIRPORT Lat: -20.70 Lon: 143.12 Height: 206.3 m
Data from the previous 72 hours. | See also: Recent months at Richmond
Date/Time
EST
Temp
°C
App
Temp
°C
Dew
Point
Rel
Hum
%
Delta-T
°C
Wind Press
QNH
hPa
Press
MSL
hPa
Rain
since 9 am
mm
Dir
 
Spd
km/h
Gust
km/h
Spd
kts
Gust
kts
02/04:00am 21.6 17.4 1.8 27 9.3 NE 13 19 7 10 1013.9 1012.7 0.0
02/03:30am 22.8 18.3 2.3 26 9.8 NE 15 19 8 10 1013.7 1012.5 0.0
02/03:00am 23.9 19.1 2.7 25 10.3 ENE 17 20 9 11 1013.7 1012.5 0.0
02/02:30am 24.5 20.1 2.6 24 10.6 ENE 15 24 8 13 1013.8 1012.6 0.0
02/02:00am 24.3 20.2 2.5 24 10.6 ENE 13 19 7 10 1013.9 1012.7 0.0
02/01:30am 24.8 20.3 2.3 23 10.9 ENE 15 24 8 13 1013.9 1012.7 0.0
02/01:00am 24.6 20.6 2.7 24 10.7 ENE 13 20 7 11 1014.1 1012.9 0.0
02/12:30am 24.1 20.1 2.9 25 10.3 ENE 13 19 7 10 1014.5 1013.2 0.0
02/12:00am 23.0 19.0 3.0 27 9.7 ENE 13 24 7 13 1014.7 1013.4 0.0
 
Date/Time
EST
Temp
°C
App
Temp
°C
Dew
Point
Rel
Hum
%
Delta-T
°C
Wind Press
QNH
hPa
Press
MSL
hPa
Rain
since 9 am
mm
Dir
 
Spd
km/h
Gust
km/h
Spd
kts
Gust
kts
01/11:30pm 22.2 18.0 1.8 26 9.6 ENE 13 17 7 9 1014.9 1013.6 0.0
01/11:00pm 23.4 19.3 2.3 25 10.1 E 13 15 7 8 1015.0 1013.7 0.0
01/10:30pm 22.6 17.9 1.0 24 10.0 E 15 17 8 9 1015.0 1013.7 0.0
01/10:00pm 23.8 19.2 1.4 23 10.6 E 15 15 8 8 1014.9 1013.6 0.0
01/09:30pm 25.9 21.9 2.6 22 11.4 E 13 15 7 8 1015.0 1013.7 0.0
01/09:00pm 26.6 22.0 1.8 20 12.0 E 15 17 8 9 1014.9 1013.6 0.0
01/08:30pm 27.0 22.0 1.4 19 12.4 ESE 17 19 9 10 1014.8 1013.5 0.0
01/08:00pm 28.5 23.6 1.9 18 13.1 ESE 17 19 9 10 1014.3 1013.1 0.0
01/07:30pm 30.1 24.7 1.5 16 14.2 E 19 22 10 12 1014.0 1012.8 0.0
01/07:00pm 31.1 25.7 1.4 15 14.8 E 19 26 10 14 1013.7 1012.5 0.0
01/06:30pm 32.2 26.0 2.3 15 15.2 E 24 33 13 18 1013.4 1012.2 0.0
01/06:00pm 33.3 25.0 2.2 14 15.9 ESE 35 50 19 27 1013.2 1012.0 0.0
01/05:30pm 34.2 25.1 1.9 13 16.5 ESE 39 54 21 29 1012.9 1011.6 0.0
01/05:00pm 35.2 26.6 2.6 13 17.0 ESE 37 48 20 26 1012.6 1011.3 0.0
01/04:30pm 35.5 26.2 2.9 13 17.1 ESE 41 52 22 28 1012.5 1011.2 0.0
01/04:08pm 35.4 26.8 2.8 13 17.0 SE 37 56 20 30 1012.5 1011.2 0.0
01/04:00pm 35.8 26.1 3.1 13 17.2 ESE 43 56 23 30 1012.5 1011.2 0.0
01/03:30pm 36.8 27.9 2.8 12 17.9 ESE 39 56 21 30 1012.6 1011.3 0.0
01/03:03pm 36.2 26.4 2.3 12 17.6 ESE 43 61 23 33 1012.9 1011.6 0.0
01/03:00pm 36.8 26.9 2.8 12 17.9 ESE 44 61 24 33 1012.9 1011.6 0.0
01/02:36pm 36.5 28.5 3.7 13 17.5 ESE 35 56 19 30 1012.9 1011.6 0.0
01/02:30pm 36.2 27.2 2.3 12 17.6 ESE 39 52 21 28 1013.1 1011.9 0.0
01/02:07pm 37.2 29.3 4.2 13 17.8 SE 35 54 19 29 1013.4 1012.2 0.0
01/02:00pm 36.4 28.7 3.6 13 17.4 ESE 33 48 18 26 1013.6 1012.4 0.0
01/01:32pm 36.1 28.4 3.3 13 17.3 ESE 33 56 18 30 1013.9 1012.7 0.0
01/01:30pm 36.4 28.7 3.6 13 17.4 ESE 33 50 18 27 1014.2 1013.0 0.0
01/01:00pm 34.5 26.9 3.1 14 16.4 ESE 32 50 17 27 1014.8 1013.5 0.0
01/12:46pm 35.1 28.0 3.6 14 16.6 ESE 30 48 16 26 1015.1 1013.8 0.0
01/12:30pm 35.1 29.1 3.6 14 16.6 E 24 39 13 21 1015.4 1014.1 0.0
01/12:00pm 33.2 27.5 3.1 15 15.6 ESE 22 35 12 19 1016.1 1014.8 0.0
01/11:30am 33.0 27.7 2.9 15 15.5 ESE 20 28 11 15 1016.6 1015.3 0.0
01/11:00am 31.5 26.8 5.1 19 14.0 E 19 32 10 17 1017.2 1015.9 0.0
01/10:30am 30.9 26.5 4.6 19 13.8 E 17 28 9 15 1017.5 1016.3 0.0
01/10:00am 29.7 25.6 6.4 23 12.5 E 17 24 9 13 1017.9 1016.7 0.0
01/09:30am 28.0 24.5 7.3 27 11.2 E 15 24 8 13 1018.1 1017.2 0.0
01/09:00am 26.8 23.9 8.3 31 10.1 ENE 13 20 7 11 1018.2 1017.3 0.0
01/08:30am 25.7 22.8 9.5 36 9.0 E 15 24 8 13 1017.8 1016.9 0.0
01/08:00am 23.8 20.1 10.1 42 7.6 NE 20 28 11 15 1017.5 1016.5 0.0
01/07:30am 21.6 19.0 9.5 46 6.6 NE 13 19 7 10 1017.3 1016.3 0.0
01/07:00am 20.4 18.1 9.0 48 6.1 NNE 11 13 6 7 1016.9 1015.9 0.0
01/06:30am 19.5 16.8 9.1 51 5.5 NE 13 17 7 9 1016.5 1015.5 0.0
01/06:00am 19.5 16.5 9.4 52 5.4 NE 15 19 8 10 1016.1 1015.1 0.0
01/05:30am 19.4 16.6 8.4 49 5.8 NE 13 17 7 9 1015.8 1014.8 0.0
01/05:00am 19.8 16.8 7.5 45 6.3 NE 13 17 7 9 1015.5 1014.5 0.0
01/04:30am 21.0 17.1 6.9 40 7.3 NE 17 22 9 12 1015.3 1014.3 0.0
01/04:00am 21.4 16.6 4.9 34 8.2 NE 19 24 10 13 1015.2 1014.2 0.0
01/03:30am 21.8 17.2 3.5 30 8.9 NE 17 22 9 12 1015.0 1014.0 0.0
01/03:00am 22.3 18.2 2.4 27 9.5 ENE 13 19 7 10 1015.1 1014.1 0.0
01/02:30am 22.2 18.2 2.8 28 9.3 ENE 13 17 7 9 1015.3 1014.3 0.0
01/02:00am 23.2 18.3 2.1 25 10.1 E 17 26 9 14 1015.3 1014.3 0.0
01/01:30am 24.7 18.9 2.2 23 10.9 E 22 30 12 16 1015.4 1014.4 0.0
01/01:00am 25.1 19.3 2.5 23 11.0 E 22 28 12 15 1015.5 1014.5 0.0
01/12:30am 25.5 19.4 2.9 23 11.1 E 24 32 13 17 1015.7 1014.7 0.0
01/12:00am 25.6 20.0 3.5 24 11.0 E 22 28 12 15 1015.7 1014.7 0.0
 
Date/Time
EST
Temp
°C
App
Temp
°C
Dew
Point
Rel
Hum
%
Delta-T
°C
Wind Press
QNH
hPa
Press
MSL
hPa
Rain
since 9 am
mm
Dir
 
Spd
km/h
Gust
km/h
Spd
kts
Gust
kts
30/11:30pm 25.4 20.1 2.8 23 11.1 E 20 26 11 14 1015.8 1014.8 0.0
30/11:00pm 25.5 19.3 2.2 22 11.3 E 24 30 13 16 1015.8 1014.8 0.0
30/10:30pm 26.3 19.7 2.3 21 11.7 E 26 33 14 18 1015.8 1014.8 0.0
30/10:00pm 26.4 20.2 2.3 21 11.8 ESE 24 30 13 16 1015.8 1014.8 0.0
30/09:30pm 26.0 20.5 2.0 21 11.7 ESE 20 28 11 15 1015.6 1014.6 0.0
30/09:00pm 25.6 20.2 1.0 20 11.7 ESE 19 20 10 11 1015.4 1014.4 0.0
30/08:30pm 26.1 20.6 0.7 19 12.1 ESE 19 20 10 11 1015.0 1014.0 0.0
30/08:00pm 26.5 21.7 0.3 18 12.4 ESE 15 19 8 10 1014.6 1013.6 0.0
30/07:30pm 27.4 22.7 1.0 18 12.7 ESE 15 15 8 8 1014.1 1013.2 0.0
30/07:00pm 28.6 24.2 0.3 16 13.6 ESE 13 15 7 8 1013.5 1012.6 0.0
30/06:30pm 31.1 26.0 0.5 14 15.0 ESE 17 20 9 11 1013.1 1012.1 0.0
30/06:00pm 32.6 26.9 0.6 13 15.9 ESE 20 26 11 14 1012.8 1011.8 0.0
30/05:30pm 33.4 27.6 0.1 12 16.5 ESE 20 30 11 16 1012.6 1011.6 0.0
30/05:00pm 33.8 27.9 1.6 13 16.4 ESE 22 28 12 15 1012.5 1011.5 0.0
30/04:30pm 34.1 27.8 1.8 13 16.5 SSE 24 32 13 17 1012.4 1011.4 0.0
30/04:00pm 34.3 28.1 1.9 13 16.6 SE 24 35 13 19 1012.4 1011.4 0.0
30/03:30pm 34.7 28.3 3.3 14 16.5 S 26 35 14 19 1012.6 1011.6 0.0
30/03:00pm 34.4 29.1 5.0 16 15.8 SE 22 30 12 16 1013.0 1012.0 0.0
30/02:30pm 34.7 29.1 5.2 16 15.9 SE 24 32 13 17 1013.4 1012.5 0.0
30/02:00pm 33.7 27.5 4.4 16 15.6 SE 26 39 14 21 1014.0 1013.1 0.0
30/01:30pm 34.0 29.0 6.3 18 15.2 ESE 22 37 12 20 1014.6 1013.6 0.0
30/01:00pm 33.2 28.8 7.2 20 14.4 S 20 24 11 13 1015.1 1014.1 0.0
30/12:30pm 32.2 28.8 7.8 22 13.6 ESE 15 30 8 16 1015.8 1014.8 0.0
30/12:00pm 31.1 29.4 7.5 23 13.0 ENE 6 15 3 8 1016.4 1015.4 0.0
30/11:30am 31.3 28.1 8.3 24 12.8 SE 15 22 8 12 1017.3 1016.3 0.0
30/11:00am 30.3 27.9 8.7 26 12.1 ENE 11 20 6 11 1017.9 1017.0 0.0
30/10:30am 29.0 27.3 9.7 30 10.9 NNE 9 17 5 9 1018.3 1017.4 0.0
30/10:00am 27.5 24.9 9.3 32 10.1 NE 13 17 7 9 1018.8 1017.9 0.0
30/09:30am 26.7 24.5 9.5 34 9.6 NE 11 19 6 10 1019.0 1018.1 0.0
30/09:00am 25.7 23.3 9.9 37 8.8 N 13 19 7 10 1019.1 1018.2 0.0
30/08:30am 24.9 22.6 10.4 40 8.1 NNE 13 19 7 10 1019.1 1018.2 0.0
30/08:00am 23.7 22.0 10.0 42 7.6 ENE 9 15 5 8 1018.9 1018.0 0.0
30/07:30am 22.1 20.5 10.3 47 6.5 E 9 13 5 7 1018.6 1017.7 0.0
30/07:00am 19.6 18.1 9.2 51 5.5 E 7 9 4 5 1018.0 1017.1 0.0
30/06:30am 18.3 16.2 8.3 52 5.2 E 9 11 5 6 1017.8 1016.9 0.0
30/06:00am 17.9 16.0 7.6 51 5.3 NNE 7 9 4 5 1017.2 1016.2 0.0
30/05:30am 18.4 15.6 8.4 52 5.2 NE 13 15 7 8 1016.3 1015.3 0.0
30/05:00am 19.6 17.8 9.5 52 5.4 NE 9 11 5 6 1016.0 1015.0 0.0
30/04:30am 20.2 18.8 9.5 50 5.8 ENE 7 9 4 5 1015.7 1014.7 0.0
30/04:00am 20.3 18.3 8.6 47 6.2 NNE 9 11 5 6 1015.4 1014.4 0.0
30/03:30am 21.6 18.7 9.5 46 6.6 NE 15 19 8 10 1015.1 1014.1 0.0
30/03:00am 21.2 18.6 7.8 42 7.0 ENE 11 13 6 7 1014.7 1013.7 0.0
30/02:30am 22.6 19.6 7.6 38 7.9 NE 13 15 7 8 1014.6 1013.6 0.0
30/02:00am 23.8 19.8 6.6 33 8.9 NE 17 20 9 11 1014.7 1013.7 0.0
30/01:30am 24.8 20.7 6.1 30 9.7 ENE 17 22 9 12 1014.8 1013.8 0.0
30/01:00am 24.5 20.7 5.8 30 9.6 ENE 15 20 8 11 1014.8 1013.8 0.0
30/12:30am 23.6 19.4 4.0 28 9.7 E 15 17 8 9 1014.9 1013.9 0.0
30/12:00am 24.5 20.0 4.3 27 10.1 E 17 22 9 12 1014.7 1013.7 0.0
 
Date/Time
EST
Temp
°C
App
Temp
°C
Dew
Point
Rel
Hum
%
Delta-T
°C
Wind Press
QNH
hPa
Press
MSL
hPa
Rain
since 9 am
mm
Dir
 
Spd
km/h
Gust
km/h
Spd
kts
Gust
kts
29/11:30pm 26.4 22.1 5.4 26 10.9 E 17 20 9 11 1014.6 1013.6 0.0
29/11:00pm 27.4 22.7 5.1 24 11.5 E 19 24 10 13 1014.5 1013.5 0.0
29/10:30pm 28.0 22.7 5.0 23 11.9 E 22 28 12 15 1014.3 1013.4 0.0
29/10:00pm 28.5 23.3 5.4 23 12.1 E 22 30 12 16 1014.1 1013.2 0.0
29/09:30pm 27.2 21.8 2.3 20 12.3 E 20 24 11 13 1014.1 1013.2 0.0
29/09:00pm 27.6 22.3 1.9 19 12.6 ESE 19 22 10 12 1013.9 1013.0 0.0
29/08:30pm 27.0 21.5 0.7 18 12.6 ESE 19 19 10 10 1013.6 1012.7 0.0
29/08:00pm 27.5 22.8 1.1 18 12.8 ESE 15 17 8 9 1013.2 1012.2 0.0
29/07:30pm 28.9 24.2 0.6 16 13.7 ESE 15 19 8 10 1012.9 1011.9 0.0
29/07:00pm 29.8 25.4 0.4 15 14.3 ESE 13 15 7 8 1012.4 1011.4 0.0
29/06:30pm 31.9 27.6 1.1 14 15.3 ESE 13 17 7 9 1012.2 1011.2 0.0
29/06:00pm 33.3 29.2 2.2 14 15.9 SE 13 17 7 9 1011.8 1010.8 0.0
29/05:30pm 34.7 29.3 2.3 13 16.7 ESE 20 26 11 14 1011.6 1010.6 0.0
29/05:00pm 34.5 30.8 2.1 13 16.7 SE 11 22 6 12 1011.4 1010.4 0.0
29/04:30pm 34.9 31.8 3.5 14 16.5 ENE 9 19 5 10 1011.4 1010.4 0.0
29/04:00pm 34.9 31.2 2.4 13 16.8 ENE 11 20 6 11 1011.4 1010.4 0.0
29/03:30pm 35.2 31.7 3.7 14 16.7 N 11 22 6 12 1011.6 1010.6 0.0
29/03:00pm 35.1 31.2 3.6 14 16.6 SE 13 28 7 15 1011.8 1010.8 0.0
29/02:30pm 35.3 31.3 4.8 15 16.4 SE 15 20 8 11 1012.3 1011.3 0.0
29/02:00pm 34.3 30.3 4.9 16 15.8 SE 15 22 8 12 1012.7 1011.7 0.0
29/01:30pm 33.3 30.8 5.0 17 15.1 NNE 7 19 4 10 1013.2 1012.2 0.0
29/01:00pm 33.8 31.2 6.2 18 15.1 SSE 9 24 5 13 1013.9 1013.0 0.0
29/12:30pm 32.5 29.1 5.9 19 14.4 NNE 13 20 7 11 1014.6 1013.6 0.0
29/12:00pm 31.6 29.1 6.6 21 13.6 ESE 9 20 5 11 1015.1 1014.1 0.0
29/11:30am 31.8 28.4 7.5 22 13.4 E 15 24 8 13 1015.6 1014.6 0.0
29/11:00am 31.5 28.3 8.5 24 12.9 ENE 15 26 8 14 1016.2 1015.2 0.0
29/10:30am 29.6 27.4 9.2 28 11.5 NE 11 22 6 12 1016.5 1015.5 0.0
29/10:00am 28.2 25.3 8.0 28 11.0 NE 13 19 7 10 1016.7 1015.7 0.0
29/09:30am 27.4 23.8 8.3 30 10.5 NNE 17 22 9 12 1016.9 1015.9 0.0
29/09:00am 26.3 22.5 7.4 30 10.1 NNE 17 24 9 13 1016.9 1015.9 0.0
29/08:30am 24.9 20.6 7.1 32 9.4 NNE 19 24 10 13 1017.1 1016.1 0.0
29/08:00am 23.9 20.7 6.7 33 9.0 ENE 13 19 7 10 1016.9 1015.9 0.0
29/07:30am 22.1 19.2 6.7 37 7.9 E 11 15 6 8 1016.7 1015.7 0.0
29/07:00am 19.7 17.8 6.8 43 6.6 ENE 6 9 3 5 1016.2 1015.2 0.0
29/06:30am 18.2 15.7 6.7 47 5.8 NE 9 11 5 6 1015.7 1014.7 0.0
29/06:00am 17.9 15.4 6.4 47 5.7 NE 9 13 5 7 1015.4 1014.4 0.0
29/05:30am 18.9 16.4 8.0 49 5.7 E 11 15 6 8 1014.7 1013.7 0.0
29/05:00am 19.3 16.2 7.4 46 6.1 E 13 15 7 8 1014.2 1013.3 0.0
29/04:30am 20.1 17.7 6.8 42 6.8 ENE 9 13 5 7 1013.8 1012.9 0.0

Other Formats:

Comma delimited format used in spreadsheet applications
http://www.bom.gov.au/fwo/IDQ60801/IDQ60801.94341.axf

JavaScript Object Notation format (JSON) in row-major order
http://www.bom.gov.au/fwo/IDQ60801/IDQ60801.94341.json